KMVN/MVN METAR and TAF weather

Enter ICAO airport designator
Station Type Date Time Source
KMVN METAR 2021/01/17 19:56 UTC NOAA

KMVN 171956Z AUTO 27009G17KT 10SM BKN026 OVC035 03/M03 A2981 RMK AO2 SLP102 T00281028


Station Type Date Time Source
KMVN Decoded METAR 2021/01/17 19:56 UTC NOAA

Mount Vernon, Mount Vernon Airport, IL, United States (KMVN) 38-19N 088-52W
Jan 17, 2021 - 02:56 PM EST / 2021.01.17 1956 UTC
Wind: from the W (270 degrees) at 10 MPH (9 KT) gusting to 20 MPH (17 KT):0
Visibility: 10 mile(s):0
Sky conditions: overcast
Temperature: 37.0 F (2.8 C)
Dew Point: 27.0 F (-2.8 C)
Relative Humidity: 66%
Pressure (altimeter): 29.81 in. Hg (1009 hPa)
ob: KMVN 171956Z AUTO 27009G17KT 10SM BKN026 OVC035 03/M03 A2981 RMK AO2 SLP102 T00281028
cycle: 20

Station Type Date Time Source
KMVN TAF 2021/01/17 18:21 UTC NOAA

TAF KMVN 171720Z 1718/1818 27009KT P6SM VCSH SCT015 BKN020
FM172300 26005KT P6SM OVC022

Example: see airport list